sensor_id;sensor_type;location;lat;lon;timestamp;pressure;altitude;pressure_sealevel;temperature;humidity
62655;BME280;48717;55.556;37.816;2024-03-08T00:00:16;99467.00;;;-4.78;72.97
62655;BME280;48717;55.556;37.816;2024-03-08T00:02:48;99496.59;;;-4.69;73.34
62655;BME280;48717;55.556;37.816;2024-03-08T00:05:18;99501.66;;;-4.71;72.51
62655;BME280;48717;55.556;37.816;2024-03-08T00:07:46;99506.56;;;-4.76;73.51
62655;BME280;48717;55.556;37.816;2024-03-08T00:10:13;99488.06;;;-4.85;73.86
62655;BME280;48717;55.556;37.816;2024-03-08T00:12:44;99487.06;;;-4.87;74.06
62655;BME280;48717;55.556;37.816;2024-03-08T00:15:14;99487.78;;;-4.90;74.03
62655;BME280;48717;55.556;37.816;2024-03-08T00:17:45;99484.09;;;-4.95;74.77
62655;BME280;48717;55.556;37.816;2024-03-08T00:20:13;99445.94;;;-5.19;75.45
62655;BME280;48717;55.556;37.816;2024-03-08T00:22:41;99458.41;;;-5.10;74.25
62655;BME280;48717;55.556;37.816;2024-03-08T00:25:09;99473.28;;;-5.04;74.73
62655;BME280;48717;55.556;37.816;2024-03-08T00:27:38;99466.19;;;-5.08;75.13
62655;BME280;48717;55.556;37.816;2024-03-08T00:30:06;99463.34;;;-5.13;75.06
62655;BME280;48717;55.556;37.816;2024-03-08T00:32:34;99455.41;;;-5.18;75.82
62655;BME280;48717;55.556;37.816;2024-03-08T00:35:02;99465.59;;;-5.19;76.27
62655;BME280;48717;55.556;37.816;2024-03-08T00:37:30;99457.88;;;-5.19;75.40
62655;BME280;48717;55.556;37.816;2024-03-08T00:39:58;99453.09;;;-5.28;75.98
62655;BME280;48717;55.556;37.816;2024-03-08T00:42:26;99453.28;;;-5.25;76.56
62655;BME280;48717;55.556;37.816;2024-03-08T00:44:53;99449.03;;;-5.25;76.66
62655;BME280;48717;55.556;37.816;2024-03-08T00:47:21;99446.47;;;-5.25;77.03
62655;BME280;48717;55.556;37.816;2024-03-08T00:49:48;99445.31;;;-5.30;76.13
62655;BME280;48717;55.556;37.816;2024-03-08T00:52:16;99436.63;;;-5.32;76.73
62655;BME280;48717;55.556;37.816;2024-03-08T00:54:45;99451.34;;;-5.29;75.94
62655;BME280;48717;55.556;37.816;2024-03-08T00:57:12;99447.00;;;-5.30;76.57
62655;BME280;48717;55.556;37.816;2024-03-08T00:59:40;99439.28;;;-5.30;76.26
62655;BME280;48717;55.556;37.816;2024-03-08T01:02:08;99427.88;;;-5.35;76.45
62655;BME280;48717;55.556;37.816;2024-03-08T01:04:36;99433.19;;;-5.32;76.48
62655;BME280;48717;55.556;37.816;2024-03-08T01:07:04;99436.81;;;-5.29;76.60
62655;BME280;48717;55.556;37.816;2024-03-08T01:09:31;99424.81;;;-5.28;76.74
62655;BME280;48717;55.556;37.816;2024-03-08T01:11:59;99416.78;;;-5.34;76.25
62655;BME280;48717;55.556;37.816;2024-03-08T01:14:27;99424.81;;;-5.28;77.25
62655;BME280;48717;55.556;37.816;2024-03-08T01:16:57;99408.97;;;-5.36;77.28
62655;BME280;48717;55.556;37.816;2024-03-08T01:19:24;99406.81;;;-5.28;77.53
62655;BME280;48717;55.556;37.816;2024-03-08T01:21:52;99402.75;;;-5.25;77.44
62655;BME280;48717;55.556;37.816;2024-03-08T01:24:19;99385.41;;;-5.29;77.62
62655;BME280;48717;55.556;37.816;2024-03-08T01:26:46;99408.59;;;-5.12;77.17
62655;BME280;48717;55.556;37.816;2024-03-08T01:29:15;99414.25;;;-5.03;76.61
62655;BME280;48717;55.556;37.816;2024-03-08T01:31:42;99416.19;;;-4.99;75.57
62655;BME280;48717;55.556;37.816;2024-03-08T01:34:10;99400.88;;;-4.95;75.43
62655;BME280;48717;55.556;37.816;2024-03-08T01:36:37;99406.53;;;-4.86;75.37
62655;BME280;48717;55.556;37.816;2024-03-08T01:39:05;99389.97;;;-4.91;74.66
62655;BME280;48717;55.556;37.816;2024-03-08T01:41:36;99389.03;;;-4.93;74.52
62655;BME280;48717;55.556;37.816;2024-03-08T01:44:04;99396.19;;;-4.88;75.34
62655;BME280;48717;55.556;37.816;2024-03-08T01:46:34;99405.13;;;-4.81;74.14
62655;BME280;48717;55.556;37.816;2024-03-08T01:49:03;99387.41;;;-4.91;74.20
62655;BME280;48717;55.556;37.816;2024-03-08T01:51:31;99399.00;;;-4.83;73.39
62655;BME280;48717;55.556;37.816;2024-03-08T01:54:01;99405.97;;;-4.80;74.79
62655;BME280;48717;55.556;37.816;2024-03-08T01:56:30;99374.84;;;-5.02;73.63
62655;BME280;48717;55.556;37.816;2024-03-08T01:58:59;99391.09;;;-4.86;74.35
62655;BME280;48717;55.556;37.816;2024-03-08T02:01:27;99392.41;;;-4.94;73.80
62655;BME280;48717;55.556;37.816;2024-03-08T02:03:55;99394.88;;;-4.96;73.88
62655;BME280;48717;55.556;37.816;2024-03-08T02:06:23;99385.47;;;-4.95;74.81
62655;BME280;48717;55.556;37.816;2024-03-08T02:08:51;99388.28;;;-4.91;74.50
62655;BME280;48717;55.556;37.816;2024-03-08T02:11:19;99382.13;;;-4.94;73.96
62655;BME280;48717;55.556;37.816;2024-03-08T02:13:48;99380.81;;;-4.86;73.81
62655;BME280;48717;55.556;37.816;2024-03-08T02:16:22;99383.72;;;-4.80;73.18
62655;BME280;48717;55.556;37.816;2024-03-08T02:18:49;99380.81;;;-4.86;73.22
62655;BME280;48717;55.556;37.816;2024-03-08T02:21:18;99391.81;;;-4.89;73.42
62655;BME280;48717;55.556;37.816;2024-03-08T02:23:46;99375.91;;;-4.98;73.65
62655;BME280;48717;55.556;37.816;2024-03-08T02:26:14;99376.44;;;-5.04;74.62
62655;BME280;48717;55.556;37.816;2024-03-08T02:28:42;99351.84;;;-5.15;74.90
62655;BME280;48717;55.556;37.816;2024-03-08T02:31:11;99349.75;;;-5.22;75.17
62655;BME280;48717;55.556;37.816;2024-03-08T02:33:41;99363.06;;;-5.30;76.03
62655;BME280;48717;55.556;37.816;2024-03-08T02:36:09;99353.25;;;-5.37;76.15
62655;BME280;48717;55.556;37.816;2024-03-08T02:38:37;99364.16;;;-5.41;76.26
62655;BME280;48717;55.556;37.816;2024-03-08T02:41:05;99362.38;;;-5.42;76.92
62655;BME280;48717;55.556;37.816;2024-03-08T02:43:33;99357.59;;;-5.51;76.76
62655;BME280;48717;55.556;37.816;2024-03-08T02:46:01;99360.25;;;-5.50;77.50
62655;BME280;48717;55.556;37.816;2024-03-08T02:48:28;99324.19;;;-5.68;77.07
62655;BME280;48717;55.556;37.816;2024-03-08T02:50:55;99343.22;;;-5.64;77.87
62655;BME280;48717;55.556;37.816;2024-03-08T02:53:23;99353.56;;;-5.63;77.77
62655;BME280;48717;55.556;37.816;2024-03-08T02:55:52;99345.59;;;-5.67;78.70
62655;BME280;48717;55.556;37.816;2024-03-08T02:58:19;99344.38;;;-5.74;78.58
62655;BME280;48717;55.556;37.816;2024-03-08T03:00:46;99348.44;;;-5.78;78.54
62655;BME280;48717;55.556;37.816;2024-03-08T03:03:14;99343.94;;;-5.82;78.90
62655;BME280;48717;55.556;37.816;2024-03-08T03:05:41;99340.03;;;-5.75;78.34
62655;BME280;48717;55.556;37.816;2024-03-08T03:08:15;99321.34;;;-5.87;79.12
62655;BME280;48717;55.556;37.816;2024-03-08T03:10:45;99338.50;;;-5.71;78.50
62655;BME280;48717;55.556;37.816;2024-03-08T03:13:13;99339.91;;;-5.61;78.86
62655;BME280;48717;55.556;37.816;2024-03-08T03:15:41;99330.69;;;-5.58;78.72
62655;BME280;48717;55.556;37.816;2024-03-08T03:18:09;99313.50;;;-5.59;78.34
62655;BME280;48717;55.556;37.816;2024-03-08T03:20:37;99323.84;;;-5.42;78.41
62655;BME280;48717;55.556;37.816;2024-03-08T03:23:09;99313.66;;;-5.41;78.16
62655;BME280;48717;55.556;37.816;2024-03-08T03:25:41;99317.09;;;-5.40;77.32
62655;BME280;48717;55.556;37.816;2024-03-08T03:28:09;99299.41;;;-5.51;77.33
62655;BME280;48717;55.556;37.816;2024-03-08T03:30:38;99303.91;;;-5.46;77.89
62655;BME280;48717;55.556;37.816;2024-03-08T03:33:06;99299.88;;;-5.58;77.31
62655;BME280;48717;55.556;37.816;2024-03-08T03:35:35;99291.41;;;-5.72;78.02
62655;BME280;48717;55.556;37.816;2024-03-08T03:38:04;99310.25;;;-5.71;78.65
62655;BME280;48717;55.556;37.816;2024-03-08T03:40:38;99304.16;;;-5.73;79.07
62655;BME280;48717;55.556;37.816;2024-03-08T03:43:06;99299.66;;;-5.78;79.31
62655;BME280;48717;55.556;37.816;2024-03-08T03:45:35;99291.75;;;-5.81;78.93
62655;BME280;48717;55.556;37.816;2024-03-08T03:48:05;99283.38;;;-5.93;78.91
62655;BME280;48717;55.556;37.816;2024-03-08T03:50:35;99292.88;;;-5.92;79.59
62655;BME280;48717;55.556;37.816;2024-03-08T03:53:04;99284.97;;;-5.95;80.12
62655;BME280;48717;55.556;37.816;2024-03-08T03:55:36;99265.22;;;-6.13;80.07
62655;BME280;48717;55.556;37.816;2024-03-08T03:58:08;99266.16;;;-6.11;80.10
62655;BME280;48717;55.556;37.816;2024-03-08T04:00:38;99279.38;;;-6.05;80.70
62655;BME280;48717;55.556;37.816;2024-03-08T04:03:06;99281.75;;;-6.08;80.93
62655;BME280;48717;55.556;37.816;2024-03-08T04:05:34;99271.47;;;-6.08;80.84
62655;BME280;48717;55.556;37.816;2024-03-08T04:08:02;99261.22;;;-6.08;81.71
62655;BME280;48717;55.556;37.816;2024-03-08T04:10:30;99267.38;;;-6.04;81.17
62655;BME280;48717;55.556;37.816;2024-03-08T04:12:58;99262.75;;;-5.95;80.65
62655;BME280;48717;55.556;37.816;2024-03-08T04:15:25;99271.03;;;-5.84;80.37
62655;BME280;48717;55.556;37.816;2024-03-08T04:17:52;99277.75;;;-5.71;80.28
62655;BME280;48717;55.556;37.816;2024-03-08T04:20:20;99278.00;;;-5.66;79.43
62655;BME280;48717;55.556;37.816;2024-03-08T04:22:49;99274.97;;;-5.59;79.84
62655;BME280;48717;55.556;37.816;2024-03-08T04:25:17;99257.53;;;-5.65;79.46
62655;BME280;48717;55.556;37.816;2024-03-08T04:27:45;99260.38;;;-5.60;78.88
62655;BME280;48717;55.556;37.816;2024-03-08T04:30:14;99251.34;;;-5.68;78.92
62655;BME280;48717;55.556;37.816;2024-03-08T04:32:42;99264.69;;;-5.59;79.33
62655;BME280;48717;55.556;37.816;2024-03-08T04:35:10;99259.38;;;-5.62;78.69
62655;BME280;48717;55.556;37.816;2024-03-08T04:37:40;99270.47;;;-5.63;78.87
62655;BME280;48717;55.556;37.816;2024-03-08T04:40:08;99254.56;;;-5.72;79.29
62655;BME280;48717;55.556;37.816;2024-03-08T04:42:37;99260.72;;;-5.69;79.58
62655;BME280;48717;55.556;37.816;2024-03-08T04:45:05;99262.75;;;-5.63;79.39
62655;BME280;48717;55.556;37.816;2024-03-08T04:47:32;99266.56;;;-5.56;80.07
62655;BME280;48717;55.556;37.816;2024-03-08T04:50:00;99260.06;;;-5.50;79.83
62655;BME280;48717;55.556;37.816;2024-03-08T04:52:28;99251.53;;;-5.48;79.62
62655;BME280;48717;55.556;37.816;2024-03-08T04:54:55;99262.09;;;-5.44;80.32
62655;BME280;48717;55.556;37.816;2024-03-08T04:57:23;99259.59;;;-5.42;79.82
62655;BME280;48717;55.556;37.816;2024-03-08T04:59:50;99265.78;;;-5.39;79.81
62655;BME280;48717;55.556;37.816;2024-03-08T05:02:17;99257.84;;;-5.43;80.73
62655;BME280;48717;55.556;37.816;2024-03-08T05:04:45;99252.84;;;-5.40;80.55
62655;BME280;48717;55.556;37.816;2024-03-08T05:07:12;99256.78;;;-5.47;81.30
62655;BME280;48717;55.556;37.816;2024-03-08T05:09:40;99255.91;;;-5.47;81.35
62655;BME280;48717;55.556;37.816;2024-03-08T05:12:08;99238.63;;;-5.50;81.69
62655;BME280;48717;55.556;37.816;2024-03-08T05:14:35;99259.84;;;-5.38;81.56
62655;BME280;48717;55.556;37.816;2024-03-08T05:17:02;99254.28;;;-5.45;82.56
62655;BME280;48717;55.556;37.816;2024-03-08T05:19:30;99261.69;;;-5.35;82.80
62655;BME280;48717;55.556;37.816;2024-03-08T05:22:01;99242.75;;;-5.37;82.58
62655;BME280;48717;55.556;37.816;2024-03-08T05:24:28;99255.75;;;-5.34;83.01
62655;BME280;48717;55.556;37.816;2024-03-08T05:26:57;99260.09;;;-5.33;84.10
62655;BME280;48717;55.556;37.816;2024-03-08T05:29:28;99225.28;;;-5.59;84.00
62655;BME280;48717;55.556;37.816;2024-03-08T05:31:56;99257.50;;;-5.50;85.37
62655;BME280;48717;55.556;37.816;2024-03-08T05:34:25;99251.81;;;-5.44;86.13
62655;BME280;48717;55.556;37.816;2024-03-08T05:36:55;99254.88;;;-5.34;85.76
62655;BME280;48717;55.556;37.816;2024-03-08T05:39:22;99230.53;;;-5.41;86.10
62655;BME280;48717;55.556;37.816;2024-03-08T05:41:50;99240.09;;;-5.39;86.18
62655;BME280;48717;55.556;37.816;2024-03-08T05:44:18;99244.31;;;-5.39;86.82
62655;BME280;48717;55.556;37.816;2024-03-08T05:46:45;99253.91;;;-5.37;86.83
62655;BME280;48717;55.556;37.816;2024-03-08T05:49:16;99223.63;;;-5.42;87.29
62655;BME280;48717;55.556;37.816;2024-03-08T05:51:43;99234.69;;;-5.27;86.89
62655;BME280;48717;55.556;37.816;2024-03-08T05:54:11;99244.25;;;-5.24;88.02
62655;BME280;48717;55.556;37.816;2024-03-08T05:56:43;99238.91;;;-5.29;87.29
62655;BME280;48717;55.556;37.816;2024-03-08T05:59:12;99242.59;;;-5.24;87.31
62655;BME280;48717;55.556;37.816;2024-03-08T06:01:40;99246.53;;;-5.14;88.01
62655;BME280;48717;55.556;37.816;2024-03-08T06:04:10;99240.31;;;-5.17;87.10
62655;BME280;48717;55.556;37.816;2024-03-08T06:06:41;99242.13;;;-5.16;87.51
62655;BME280;48717;55.556;37.816;2024-03-08T06:09:09;99239.03;;;-5.09;88.54
62655;BME280;48717;55.556;37.816;2024-03-08T06:11:39;99219.75;;;-5.17;88.15
62655;BME280;48717;55.556;37.816;2024-03-08T06:14:08;99242.72;;;-5.04;87.07
62655;BME280;48717;55.556;37.816;2024-03-08T06:16:36;99240.00;;;-4.90;88.06
62655;BME280;48717;55.556;37.816;2024-03-08T06:19:03;99215.00;;;-4.93;86.29
62655;BME280;48717;55.556;37.816;2024-03-08T06:21:31;99225.53;;;-4.72;85.94
62655;BME280;48717;55.556;37.816;2024-03-08T06:23:59;99234.19;;;-4.69;85.90
62655;BME280;48717;55.556;37.816;2024-03-08T06:26:27;99237.22;;;-4.60;85.33
62655;BME280;48717;55.556;37.816;2024-03-08T06:28:59;99238.66;;;-4.49;86.28
62655;BME280;48717;55.556;37.816;2024-03-08T06:31:27;99241.59;;;-4.41;84.56
62655;BME280;48717;55.556;37.816;2024-03-08T06:33:55;99244.25;;;-4.39;84.63
62655;BME280;48717;55.556;37.816;2024-03-08T06:36:24;99218.69;;;-4.36;84.83
62655;BME280;48717;55.556;37.816;2024-03-08T06:38:52;99224.88;;;-4.14;84.35
62655;BME280;48717;55.556;37.816;2024-03-08T06:41:20;99215.22;;;-4.18;82.79
62655;BME280;48717;55.556;37.816;2024-03-08T06:43:48;99230.59;;;-4.02;82.26
62655;BME280;48717;55.556;37.816;2024-03-08T06:46:17;99224.72;;;-3.99;82.87
62655;BME280;48717;55.556;37.816;2024-03-08T06:48:44;99216.53;;;-4.09;81.98
62655;BME280;48717;55.556;37.816;2024-03-08T06:51:18;99227.78;;;-3.88;81.48
62655;BME280;48717;55.556;37.816;2024-03-08T06:53:46;99230.00;;;-3.78;81.36
62655;BME280;48717;55.556;37.816;2024-03-08T06:56:13;99223.97;;;-3.78;79.57
62655;BME280;48717;55.556;37.816;2024-03-08T06:58:41;99212.47;;;-3.85;79.51
62655;BME280;48717;55.556;37.816;2024-03-08T07:01:09;99232.34;;;-3.64;79.78
62655;BME280;48717;55.556;37.816;2024-03-08T07:03:41;99217.88;;;-3.81;78.42
62655;BME280;48717;55.556;37.816;2024-03-08T07:06:12;99222.47;;;-3.73;79.84
62655;BME280;48717;55.556;37.816;2024-03-08T07:08:42;99226.09;;;-3.70;78.44
62655;BME280;48717;55.556;37.816;2024-03-08T07:11:10;99231.91;;;-3.74;80.16
62655;BME280;48717;55.556;37.816;2024-03-08T07:13:39;99231.19;;;-3.71;79.68
62655;BME280;48717;55.556;37.816;2024-03-08T07:16:07;99234.84;;;-3.66;78.53
62655;BME280;48717;55.556;37.816;2024-03-08T07:18:36;99224.13;;;-3.56;78.53
62655;BME280;48717;55.556;37.816;2024-03-08T07:21:07;99217.72;;;-3.46;77.48
62655;BME280;48717;55.556;37.816;2024-03-08T07:23:34;99222.88;;;-3.46;78.20
62655;BME280;48717;55.556;37.816;2024-03-08T07:26:21;99226.13;;;-3.50;77.50
62655;BME280;48717;55.556;37.816;2024-03-08T07:28:48;99230.41;;;-3.50;77.50
62655;BME280;48717;55.556;37.816;2024-03-08T07:31:16;99231.69;;;-3.41;77.92
62655;BME280;48717;55.556;37.816;2024-03-08T07:33:43;99226.53;;;-3.41;77.71
62655;BME280;48717;55.556;37.816;2024-03-08T07:36:11;99224.38;;;-3.31;76.85
62655;BME280;48717;55.556;37.816;2024-03-08T07:38:39;99233.41;;;-3.21;76.75
62655;BME280;48717;55.556;37.816;2024-03-08T07:41:07;99221.00;;;-3.10;76.45
62655;BME280;48717;55.556;37.816;2024-03-08T07:43:34;99227.38;;;-3.02;75.78
62655;BME280;48717;55.556;37.816;2024-03-08T07:46:02;99229.97;;;-3.02;75.82
62655;BME280;48717;55.556;37.816;2024-03-08T07:48:29;99221.75;;;-3.13;75.46
62655;BME280;48717;55.556;37.816;2024-03-08T07:50:58;99223.78;;;-3.06;76.59
62655;BME280;48717;55.556;37.816;2024-03-08T07:53:25;99223.78;;;-3.06;75.99
62655;BME280;48717;55.556;37.816;2024-03-08T07:55:53;99221.53;;;-2.98;75.84
62655;BME280;48717;55.556;37.816;2024-03-08T07:58:21;99211.22;;;-2.98;76.50
62655;BME280;48717;55.556;37.816;2024-03-08T08:00:48;99217.38;;;-2.94;75.63
62655;BME280;48717;55.556;37.816;2024-03-08T08:03:16;99216.09;;;-2.84;74.85
62655;BME280;48717;55.556;37.816;2024-03-08T08:05:48;99210.91;;;-2.65;74.81
62655;BME280;48717;55.556;37.816;2024-03-08T08:08:16;99196.88;;;-2.50;74.00
62655;BME280;48717;55.556;37.816;2024-03-08T08:10:43;99216.56;;;-2.52;72.61
62655;BME280;48717;55.556;37.816;2024-03-08T08:13:11;99208.41;;;-2.42;73.03
62655;BME280;48717;55.556;37.816;2024-03-08T08:15:38;99198.56;;;-2.29;72.29
62655;BME280;48717;55.556;37.816;2024-03-08T08:18:05;99209.16;;;-2.23;72.74
62655;BME280;48717;55.556;37.816;2024-03-08T08:20:34;99192.41;;;-2.33;72.04
62655;BME280;48717;55.556;37.816;2024-03-08T08:23:01;99204.16;;;-2.18;72.31
62655;BME280;48717;55.556;37.816;2024-03-08T08:25:29;99214.84;;;-2.11;71.44
62655;BME280;48717;55.556;37.816;2024-03-08T08:27:56;99206.41;;;-2.05;71.94
62655;BME280;48717;55.556;37.816;2024-03-08T08:30:23;99203.03;;;-2.04;71.92
62655;BME280;48717;55.556;37.816;2024-03-08T08:32:51;99199.69;;;-2.01;71.00
62655;BME280;48717;55.556;37.816;2024-03-08T08:35:18;99194.97;;;-1.89;71.50
62655;BME280;48717;55.556;37.816;2024-03-08T08:37:47;99196.28;;;-1.54;70.56
62655;BME280;48717;55.556;37.816;2024-03-08T08:40:14;99198.75;;;-1.35;69.93
62655;BME280;48717;55.556;37.816;2024-03-08T08:42:44;99200.72;;;-1.27;69.08
62655;BME280;48717;55.556;37.816;2024-03-08T08:45:16;99174.13;;;-1.23;68.64
62655;BME280;48717;55.556;37.816;2024-03-08T08:47:52;99202.22;;;-1.10;68.04
62655;BME280;48717;55.556;37.816;2024-03-08T08:50:19;99199.75;;;-1.07;68.30
62655;BME280;48717;55.556;37.816;2024-03-08T08:52:51;99181.81;;;-1.02;68.20
62655;BME280;48717;55.556;37.816;2024-03-08T08:55:18;99204.25;;;-0.76;67.31
62655;BME280;48717;55.556;37.816;2024-03-08T08:57:48;99192.44;;;-0.68;66.40
62655;BME280;48717;55.556;37.816;2024-03-08T09:00:16;99194.81;;;-0.48;65.67
62655;BME280;48717;55.556;37.816;2024-03-08T09:02:46;99198.34;;;-0.46;65.08
62655;BME280;48717;55.556;37.816;2024-03-08T09:05:14;99200.53;;;-0.33;63.90
62655;BME280;48717;55.556;37.816;2024-03-08T09:07:44;99183.50;;;-0.24;64.61
62655;BME280;48717;55.556;37.816;2024-03-08T09:10:14;99195.94;;;-0.14;64.39
62655;BME280;48717;55.556;37.816;2024-03-08T09:12:45;99202.31;;;-0.03;63.91
62655;BME280;48717;55.556;37.816;2024-03-08T09:15:12;99207.78;;;0.05;63.24
62655;BME280;48717;55.556;37.816;2024-03-08T09:17:40;99171.53;;;0.07;62.40
62655;BME280;48717;55.556;37.816;2024-03-08T09:20:10;99181.50;;;0.23;62.06
62655;BME280;48717;55.556;37.816;2024-03-08T09:22:45;99178.78;;;0.19;62.08
62655;BME280;48717;55.556;37.816;2024-03-08T09:25:13;99174.97;;;0.07;62.13
62655;BME280;48717;55.556;37.816;2024-03-08T09:27:41;99165.72;;;0.16;61.89
62655;BME280;48717;55.556;37.816;2024-03-08T09:30:08;99187.25;;;0.13;63.00
62655;BME280;48717;55.556;37.816;2024-03-08T09:32:36;99171.13;;;0.23;62.33
62655;BME280;48717;55.556;37.816;2024-03-08T09:35:04;99174.47;;;0.19;62.26
62655;BME280;48717;55.556;37.816;2024-03-08T09:37:35;99184.22;;;0.27;62.37
62655;BME280;48717;55.556;37.816;2024-03-08T09:40:03;99183.63;;;0.37;62.66
62655;BME280;48717;55.556;37.816;2024-03-08T09:42:37;99183.16;;;0.50;62.48
62655;BME280;48717;55.556;37.816;2024-03-08T09:45:09;99150.50;;;0.27;61.50
62655;BME280;48717;55.556;37.816;2024-03-08T09:47:44;99175.91;;;0.38;61.97
62655;BME280;48717;55.556;37.816;2024-03-08T09:50:11;99171.63;;;0.39;61.83
62655;BME280;48717;55.556;37.816;2024-03-08T09:52:42;99167.91;;;0.31;62.86
62655;BME280;48717;55.556;37.816;2024-03-08T09:55:10;99173.63;;;0.49;63.08
62655;BME280;48717;55.556;37.816;2024-03-08T09:57:42;99163.53;;;0.59;62.20
62655;BME280;48717;55.556;37.816;2024-03-08T10:00:30;99174.94;;;0.65;61.95
62655;BME280;48717;55.556;37.816;2024-03-08T10:03:02;99169.09;;;0.73;61.64
62655;BME280;48717;55.556;37.816;2024-03-08T10:05:30;99170.56;;;0.95;61.12
62655;BME280;48717;55.556;37.816;2024-03-08T10:07:59;99150.56;;;1.23;60.78
62655;BME280;48717;55.556;37.816;2024-03-08T10:10:27;99151.47;;;1.61;59.59
62655;BME280;48717;55.556;37.816;2024-03-08T10:12:55;99150.91;;;1.74;58.58
62655;BME280;48717;55.556;37.816;2024-03-08T10:15:23;99137.22;;;1.81;57.57
62655;BME280;48717;55.556;37.816;2024-03-08T10:17:51;99152.66;;;2.12;57.56
62655;BME280;48717;55.556;37.816;2024-03-08T10:20:20;99154.28;;;2.47;56.45
62655;BME280;48717;55.556;37.816;2024-03-08T10:22:48;99157.44;;;2.32;56.52
62655;BME280;48717;55.556;37.816;2024-03-08T10:25:33;99137.06;;;2.14;56.47
62655;BME280;48717;55.556;37.816;2024-03-08T10:28:05;99155.53;;;2.25;56.30
62655;BME280;48717;55.556;37.816;2024-03-08T10:30:33;99146.59;;;2.12;56.34
62655;BME280;48717;55.556;37.816;2024-03-08T10:33:01;99155.94;;;2.03;56.56
62655;BME280;48717;55.556;37.816;2024-03-08T10:35:33;99139.16;;;1.89;57.18
62655;BME280;48717;55.556;37.816;2024-03-08T10:38:04;99150.88;;;1.71;57.22
62655;BME280;48717;55.556;37.816;2024-03-08T10:40:37;99157.41;;;1.92;57.97
62655;BME280;48717;55.556;37.816;2024-03-08T10:43:15;99142.41;;;2.18;57.75
62655;BME280;48717;55.556;37.816;2024-03-08T10:45:46;99147.13;;;2.38;56.16
62655;BME280;48717;55.556;37.816;2024-03-08T10:48:31;99135.72;;;2.31;56.41
62655;BME280;48717;55.556;37.816;2024-03-08T10:51:05;99153.81;;;2.25;56.84
62655;BME280;48717;55.556;37.816;2024-03-08T10:53:36;99143.59;;;2.34;56.47
62655;BME280;48717;55.556;37.816;2024-03-08T10:56:04;99149.47;;;2.24;56.88
62655;BME280;48717;55.556;37.816;2024-03-08T10:58:35;99154.38;;;2.12;57.25
62655;BME280;48717;55.556;37.816;2024-03-08T11:01:05;99147.72;;;1.85;58.36
62655;BME280;48717;55.556;37.816;2024-03-08T11:03:48;99146.03;;;1.51;59.13
62655;BME280;48717;55.556;37.816;2024-03-08T11:09:30;99150.03;;;1.37;60.31
62655;BME280;48717;55.556;37.816;2024-03-08T11:12:28;99153.16;;;1.23;61.15
62655;BME280;48717;55.556;37.816;2024-03-08T11:15:10;99149.56;;;0.86;62.47
62655;BME280;48717;55.556;37.816;2024-03-08T11:17:45;99153.22;;;0.62;63.68
62655;BME280;48717;55.556;37.816;2024-03-08T11:20:14;99152.22;;;0.57;63.95
62655;BME280;48717;55.556;37.816;2024-03-08T11:22:49;99156.09;;;0.41;65.36
62655;BME280;48717;55.556;37.816;2024-03-08T11:25:38;99151.41;;;0.29;65.87
62655;BME280;48717;55.556;37.816;2024-03-08T11:28:19;99146.63;;;0.12;66.12
62655;BME280;48717;55.556;37.816;2024-03-08T11:33:40;99159.97;;;-0.03;68.38
62655;BME280;48717;55.556;37.816;2024-03-08T11:36:12;99157.06;;;-0.14;68.93
62655;BME280;48717;55.556;37.816;2024-03-08T11:38:44;99134.41;;;-0.20;69.36
62655;BME280;48717;55.556;37.816;2024-03-08T11:41:11;99154.25;;;-0.20;68.89
62655;BME280;48717;55.556;37.816;2024-03-08T11:43:46;99151.03;;;-0.13;69.38
62655;BME280;48717;55.556;37.816;2024-03-08T11:46:15;99143.00;;;0.07;69.32
62655;BME280;48717;55.556;37.816;2024-03-08T11:48:44;99150.53;;;0.28;68.02
62655;BME280;48717;55.556;37.816;2024-03-08T11:51:15;99152.03;;;0.50;67.47
62655;BME280;48717;55.556;37.816;2024-03-08T11:53:42;99156.72;;;0.62;66.83
62655;BME280;48717;55.556;37.816;2024-03-08T11:56:14;99158.78;;;0.74;66.12
62655;BME280;48717;55.556;37.816;2024-03-08T11:58:52;99149.31;;;0.76;65.45
62655;BME280;48717;55.556;37.816;2024-03-08T12:01:20;99136.66;;;0.89;65.94
62655;BME280;48717;55.556;37.816;2024-03-08T12:03:56;99135.78;;;0.88;65.52
62655;BME280;48717;55.556;37.816;2024-03-08T12:06:36;99137.84;;;1.00;64.96
62655;BME280;48717;55.556;37.816;2024-03-08T12:09:10;99154.19;;;0.96;64.61
62655;BME280;48717;55.556;37.816;2024-03-08T12:11:37;99144.50;;;0.90;65.71
62655;BME280;48717;55.556;37.816;2024-03-08T12:14:06;99145.88;;;1.10;65.39
62655;BME280;48717;55.556;37.816;2024-03-08T12:16:34;99155.97;;;1.33;64.48
62655;BME280;48717;55.556;37.816;2024-03-08T12:19:03;99145.06;;;1.46;64.14
62655;BME280;48717;55.556;37.816;2024-03-08T12:21:31;99144.28;;;1.50;63.49
62655;BME280;48717;55.556;37.816;2024-03-08T12:24:05;99146.88;;;1.50;63.95
62655;BME280;48717;55.556;37.816;2024-03-08T12:26:37;99139.41;;;1.27;63.64
62655;BME280;48717;55.556;37.816;2024-03-08T12:31:42;99160.09;;;1.24;64.11
62655;BME280;48717;55.556;37.816;2024-03-08T12:34:10;99151.25;;;1.17;63.75
62655;BME280;48717;55.556;37.816;2024-03-08T12:36:37;99142.38;;;1.09;64.07
62655;BME280;48717;55.556;37.816;2024-03-08T12:39:05;99150.09;;;1.06;63.96
62655;BME280;48717;55.556;37.816;2024-03-08T12:41:39;99153.88;;;1.17;64.41
62655;BME280;48717;55.556;37.816;2024-03-08T12:44:08;99154.75;;;1.18;63.84
62655;BME280;48717;55.556;37.816;2024-03-08T12:46:38;99153.88;;;1.17;64.62
62655;BME280;48717;55.556;37.816;2024-03-08T12:49:08;99160.00;;;1.21;64.57
62655;BME280;48717;55.556;37.816;2024-03-08T12:51:36;99144.22;;;1.13;63.97
62655;BME280;48717;55.556;37.816;2024-03-08T12:54:05;99150.75;;;0.97;64.40
62655;BME280;48717;55.556;37.816;2024-03-08T12:56:36;99145.44;;;0.94;64.29
62655;BME280;48717;55.556;37.816;2024-03-08T12:59:05;99145.66;;;1.02;64.24
62655;BME280;48717;55.556;37.816;2024-03-08T13:01:32;99163.06;;;1.06;64.57
62655;BME280;48717;55.556;37.816;2024-03-08T13:04:00;99162.31;;;1.10;64.27
62655;BME280;48717;55.556;37.816;2024-03-08T13:06:30;99155.38;;;1.09;64.59
62655;BME280;48717;55.556;37.816;2024-03-08T13:08:59;99158.81;;;1.08;64.68
62655;BME280;48717;55.556;37.816;2024-03-08T13:11:32;99159.44;;;0.99;65.17